Time;durP1;ratioP1;P1;durP2;ratioP2;P2;SDS_P1;SDS_P2;PMS_P1;PMS_P2;Temp;Humidity;BMP_temperature;BMP_pressure;BME280_temperature;BME280_humidity;BME280_pressure;Samples;Min_cycle;Max_cycle;Signal;HPM_P1;HPM_P2
2022/01/10 00:00:45;;;;;;;53.20;27.80;;;;;;;-1.25;57.88;99546.97;5025104;28;20104;-71
2022/01/10 00:03:12;;;;;;;51.72;27.75;;;;;;;-1.28;58.07;99552.25;5027179;28;20049;-72
2022/01/10 00:05:39;;;;;;;57.28;25.85;;;;;;;-1.27;57.94;99553.97;5026521;28;20046;-73
2022/01/10 00:08:06;;;;;;;47.78;25.27;;;;;;;-1.29;57.95;99560.94;5025530;28;20042;-71
2022/01/10 00:10:33;;;;;;;54.50;27.05;;;;;;;-1.28;58.13;99556.59;5026229;28;20046;-72
2022/01/10 00:13:02;;;;;;;60.10;29.75;;;;;;;-1.29;58.16;99560.94;5025603;28;20045;-74
2022/01/10 00:15:30;;;;;;;60.22;25.77;;;;;;;-1.29;57.76;99565.28;5026089;28;20050;-71
2022/01/10 00:17:57;;;;;;;49.30;25.27;;;;;;;-1.37;57.83;99561.22;5026046;28;20053;-72
2022/01/10 00:20:24;;;;;;;58.40;30.63;;;;;;;-1.37;58.07;99558.63;5025277;28;20048;-68
2022/01/10 00:22:51;;;;;;;57.78;28.05;;;;;;;-1.33;58.12;99555.91;5026528;28;20060;-74
2022/01/10 00:25:20;;;;;;;58.42;28.38;;;;;;;-1.29;58.20;99553.16;5025206;28;20045;-71
2022/01/10 00:27:52;;;;;;;63.65;27.13;;;;;;;-1.25;58.12;99559.09;5022736;28;20057;-75
2022/01/10 00:30:22;;;;;;;53.25;28.88;;;;;;;-1.23;58.21;99563.31;5025107;28;20045;-69
2022/01/10 00:32:49;;;;;;;54.47;28.05;;;;;;;-1.31;58.16;99562.75;5029009;28;20100;-72
2022/01/10 00:35:17;;;;;;;58.22;30.55;;;;;;;-1.33;58.18;99569.72;5025817;28;20068;-69
2022/01/10 00:37:45;;;;;;;55.38;28.10;;;;;;;-1.37;58.18;99571.56;4974358;28;20042;-73
2022/01/10 00:40:14;;;;;;;59.10;27.67;;;;;;;-1.39;58.24;99575.97;5024571;28;20046;-73
2022/01/10 00:42:43;;;;;;;64.82;31.17;;;;;;;-1.43;58.38;99574.34;5006464;28;20506;-72
2022/01/10 00:45:17;;;;;;;61.25;31.85;;;;;;;-1.44;58.36;99587.34;5025474;28;20485;-73
2022/01/10 00:47:47;;;;;;;69.30;33.72;;;;;;;-1.43;58.22;99594.25;5026265;28;20081;-69
2022/01/10 00:50:14;;;;;;;65.05;31.73;;;;;;;-1.46;58.49;99592.63;5025498;28;20103;-68
2022/01/10 00:52:42;;;;;;;63.33;31.20;;;;;;;-1.44;58.33;99601.19;5025242;28;20053;-70
2022/01/10 00:55:13;;;;;;;61.58;32.53;;;;;;;-1.44;58.38;99606.34;5026632;28;20076;-67
2022/01/10 00:57:40;;;;;;;59.33;33.00;;;;;;;-1.49;58.38;99610.00;5026917;28;20049;-71
2022/01/10 01:00:09;;;;;;;68.50;33.70;;;;;;;-1.52;58.72;99605.75;5030822;28;20076;-75
2022/01/10 01:02:36;;;;;;;63.17;29.30;;;;;;;-1.53;58.46;99609.25;5029381;28;20157;-73
2022/01/10 01:05:08;;;;;;;71.65;35.38;;;;;;;-1.53;58.77;99622.22;5028701;28;20045;-73
2022/01/10 01:07:37;;;;;;;72.55;31.90;;;;;;;-1.48;58.86;99633.25;4995039;28;20041;-72
2022/01/10 01:10:22;;;;;;;58.05;29.35;;;;;;;-1.43;58.38;99633.09;5028256;28;20053;-70
2022/01/10 01:12:53;;;;;;;62.00;30.30;;;;;;;-1.44;58.19;99632.25;5029933;28;20099;-71
2022/01/10 01:15:24;;;;;;;57.97;27.83;;;;;;;-1.50;58.47;99632.44;5029906;28;20073;-71
2022/01/10 01:18:12;;;;;;;60.63;32.88;;;;;;;-1.54;58.52;99636.03;5028700;28;20043;-72
2022/01/10 01:23:59;;;;;;;61.88;33.45;;;;;;;-1.56;58.56;99635.25;5029284;28;20049;-71
2022/01/10 01:26:15;;;;;;;63.47;31.10;;;;;;;-1.59;59.25;99633.59;5027793;28;20076;-72
2022/01/10 01:28:42;;;;;;;52.80;28.50;;;;;;;-1.62;58.92;99632.84;5027545;28;20045;-70
2022/01/10 01:31:09;;;;;;;53.95;25.27;;;;;;;-1.64;59.31;99637.22;5028550;28;20041;-72
2022/01/10 01:33:37;;;;;;;51.13;27.20;;;;;;;-1.64;59.30;99634.63;5027713;28;20128;-70
2022/01/10 01:36:06;;;;;;;56.33;29.17;;;;;;;-1.61;59.28;99639.72;5028925;28;20223;-72
2022/01/10 01:38:33;;;;;;;61.55;31.50;;;;;;;-1.60;59.07;99631.91;5029644;28;20052;-71
2022/01/10 01:41:17;;;;;;;66.65;30.65;;;;;;;-1.58;59.13;99635.28;5029094;28;20099;-72
2022/01/10 01:43:44;;;;;;;55.75;27.02;;;;;;;-1.58;58.94;99637.03;5027544;28;20053;-69
2022/01/10 01:46:11;;;;;;;58.08;24.95;;;;;;;-1.60;59.18;99637.09;5028913;28;20493;-71
2022/01/10 01:48:38;;;;;;;59.17;26.38;;;;;;;-1.59;59.38;99637.94;5028059;28;20041;-72
2022/01/10 01:51:07;;;;;;;65.40;33.08;;;;;;;-1.59;59.32;99640.53;5028386;28;20049;-73
2022/01/10 01:53:36;;;;;;;59.72;29.48;;;;;;;-1.58;59.38;99647.41;5011992;28;20049;-72
2022/01/10 01:56:04;;;;;;;60.40;27.67;;;;;;;-1.60;59.17;99657.81;5027661;28;20049;-72
2022/01/10 01:58:32;;;;;;;55.20;31.30;;;;;;;-1.62;59.33;99661.31;5008228;28;20505;-71
2022/01/10 02:00:59;;;;;;;56.80;28.45;;;;;;;-1.64;59.49;99668.31;5027936;28;20037;-73
2022/01/10 02:03:27;;;;;;;65.90;34.47;;;;;;;-1.70;59.61;99674.53;5029926;28;20049;-71
2022/01/10 02:05:53;;;;;;;48.55;26.42;;;;;;;-1.69;59.68;99676.22;5028765;28;20047;-72
2022/01/10 02:08:22;;;;;;;58.70;30.77;;;;;;;-1.65;59.62;99680.41;5027416;28;20063;-69
2022/01/10 02:10:49;;;;;;;60.65;25.63;;;;;;;-1.64;59.56;99682.13;5028806;28;20049;-73
2022/01/10 02:13:17;;;;;;;49.33;23.05;;;;;;;-1.61;59.32;99684.59;5028565;28;20052;-69
2022/01/10 02:15:48;;;;;;;59.97;26.80;;;;;;;-1.57;59.26;99693.09;5027535;28;20049;-72
2022/01/10 02:18:16;;;;;;;46.95;21.92;;;;;;;-1.55;59.63;99699.94;5033847;28;20072;-69
2022/01/10 02:20:45;;;;;;;56.75;22.77;;;;;;;-1.51;59.30;99695.53;5044760;28;20141;-71
2022/01/10 02:23:12;;;;;;;48.60;23.77;;;;;;;-1.46;59.28;99697.94;5028809;28;20091;-74
2022/01/10 02:25:39;;;;;;;51.15;27.00;;;;;;;-1.40;59.50;99708.97;5030279;28;20053;-72
2022/01/10 02:28:07;;;;;;;55.70;25.08;;;;;;;-1.36;59.28;99707.97;5027986;28;20041;-70
2022/01/10 02:30:34;;;;;;;61.95;29.98;;;;;;;-1.30;59.44;99712.09;5027458;28;20071;-68
2022/01/10 02:33:01;;;;;;;55.50;23.73;;;;;;;-1.24;59.38;99705.84;5028426;28;20052;-73
2022/01/10 02:35:33;;;;;;;38.67;22.00;;;;;;;-1.17;59.39;99717.72;5029373;28;20057;-71
2022/01/10 02:38:03;;;;;;;71.05;30.58;;;;;;;-1.14;59.57;99727.16;5026419;28;20689;-73
2022/01/10 02:40:33;;;;;;;61.78;25.95;;;;;;;-1.10;59.45;99726.16;5027438;28;20050;-70
2022/01/10 02:43:01;;;;;;;52.35;25.10;;;;;;;-1.03;59.25;99731.06;5010118;28;20053;-72
2022/01/10 02:45:28;;;;;;;52.40;24.85;;;;;;;-1.00;58.98;99712.00;5028909;28;20058;-72
2022/01/10 02:47:55;;;;;;;56.58;28.58;;;;;;;-0.98;59.22;99725.75;5028413;28;20401;-71
2022/01/10 02:50:23;;;;;;;80.80;33.97;;;;;;;-0.90;59.09;99736.72;5027880;28;20098;-72
2022/01/10 02:52:50;;;;;;;53.70;25.77;;;;;;;-0.84;59.05;99738.25;5027132;28;20135;-73
2022/01/10 02:55:18;;;;;;;68.65;30.30;;;;;;;-0.78;59.30;99738.88;5010176;28;20213;-71
2022/01/10 02:57:46;;;;;;;49.03;21.80;;;;;;;-0.77;59.21;99737.13;5025812;28;20053;-73
2022/01/10 03:00:15;;;;;;;48.67;21.48;;;;;;;-0.77;59.18;99742.31;5028123;28;20358;-71
2022/01/10 03:02:44;;;;;;;48.75;23.60;;;;;;;-0.76;59.08;99736.22;5028022;28;20049;-73
2022/01/10 03:05:11;;;;;;;37.50;18.65;;;;;;;-0.79;59.09;99744.97;5027743;28;20042;-72
2022/01/10 03:07:39;;;;;;;37.42;20.58;;;;;;;-0.86;59.31;99740.06;5027802;28;20144;-71
2022/01/10 03:10:07;;;;;;;55.70;23.33;;;;;;;-0.87;59.24;99749.56;5028426;28;20397;-73
2022/01/10 03:12:36;;;;;;;37.13;18.08;;;;;;;-0.82;59.14;99759.78;5026538;28;20045;-72
2022/01/10 03:15:07;;;;;;;64.18;27.45;;;;;;;-0.75;59.03;99756.09;5027543;28;20409;-71
2022/01/10 03:17:34;;;;;;;56.22;26.13;;;;;;;-0.66;59.37;99755.75;5027556;28;20771;-71
2022/01/10 03:20:02;;;;;;;49.10;25.02;;;;;;;-0.65;59.30;99760.06;5026370;28;20053;-74
2022/01/10 03:22:28;;;;;;;43.42;17.67;;;;;;;-0.70;59.20;99781.84;5027491;28;20057;-73
2022/01/10 03:24:56;;;;;;;51.40;22.65;;;;;;;-0.69;59.47;99784.38;5027329;28;20493;-73
2022/01/10 03:27:24;;;;;;;45.95;21.52;;;;;;;-0.66;59.12;99794.66;5024914;28;20046;-72
2022/01/10 03:29:53;;;;;;;54.47;21.60;;;;;;;-0.62;59.22;99796.25;5026948;28;20064;-74
2022/01/10 03:32:20;;;;;;;53.28;23.55;;;;;;;-0.63;59.27;99802.34;5028023;28;20050;-72
2022/01/10 03:34:47;;;;;;;50.05;23.42;;;;;;;-0.66;59.33;99804.22;5026087;28;20056;-70
2022/01/10 03:37:14;;;;;;;40.88;19.73;;;;;;;-0.67;59.56;99813.72;5026378;28;20045;-70
2022/01/10 03:39:41;;;;;;;50.50;24.13;;;;;;;-0.64;59.62;99813.63;5028651;28;20049;-69
2022/01/10 03:42:08;;;;;;;70.65;30.90;;;;;;;-0.60;59.62;99825.56;5040857;28;20132;-70
2022/01/10 03:44:35;;;;;;;64.65;21.52;;;;;;;-0.61;59.50;99831.69;5008082;28;20060;-71
2022/01/10 03:47:05;;;;;;;52.95;21.05;;;;;;;-0.68;59.62;99840.56;5026481;28;20678;-72
2022/01/10 03:49:32;;;;;;;67.18;31.75;;;;;;;-0.66;60.01;99843.94;5025976;28;20045;-70
2022/01/10 03:51:59;;;;;;;80.65;36.85;;;;;;;-0.62;59.79;99837.75;5006705;28;20524;-72
2022/01/10 03:54:28;;;;;;;56.75;26.85;;;;;;;-0.61;59.80;99843.81;5006979;28;20046;-72
2022/01/10 03:56:55;;;;;;;58.88;23.88;;;;;;;-0.61;59.69;99843.81;5006202;28;20562;-68
2022/01/10 03:59:22;;;;;;;51.80;23.23;;;;;;;-0.65;59.73;99840.47;5006376;28;20062;-69
2022/01/10 04:01:51;;;;;;;52.13;20.90;;;;;;;-0.71;59.98;99845.84;5010005;28;20049;-71
2022/01/10 04:04:19;;;;;;;47.22;21.83;;;;;;;-0.68;60.24;99852.69;5006586;28;20053;-71
2022/01/10 04:06:46;;;;;;;41.75;17.73;;;;;;;-0.63;59.96;99855.94;5005654;28;20050;-70
2022/01/10 04:09:13;;;;;;;55.08;21.60;;;;;;;-0.61;59.97;99865.41;5007245;28;20360;-71
2022/01/10 04:11:41;;;;;;;49.63;20.38;;;;;;;-0.60;60.09;99861.88;5008153;28;20050;-71
2022/01/10 04:14:08;;;;;;;46.53;19.50;;;;;;;-0.60;59.81;99877.44;5006407;28;20104;-71
2022/01/10 04:16:35;;;;;;;44.08;21.00;;;;;;;-0.59;60.09;99878.31;5006466;28;20046;-71
2022/01/10 04:19:02;;;;;;;44.78;19.88;;;;;;;-0.63;60.18;99890.53;5008437;28;20048;-71
2022/01/10 04:21:30;;;;;;;49.28;21.25;;;;;;;-0.67;60.24;99891.50;5009435;28;20045;-65
2022/01/10 04:23:57;;;;;;;44.13;20.65;;;;;;;-0.67;59.88;99894.09;5017731;28;20149;-73
2022/01/10 04:26:24;;;;;;;45.35;19.30;;;;;;;-0.66;59.99;99910.53;5009360;28;20068;-74
2022/01/10 04:28:51;;;;;;;46.17;18.95;;;;;;;-0.63;59.97;99913.00;5008664;28;20046;-72
2022/01/10 04:31:18;;;;;;;41.00;17.10;;;;;;;-0.70;59.99;99912.38;5015653;28;20042;-70
2022/01/10 04:33:45;;;;;;;20.70;10.23;;;;;;;-0.74;60.24;99920.28;5013434;28;20046;-73
2022/01/10 04:36:12;;;;;;;35.03;14.93;;;;;;;-0.79;60.07;99917.88;5014831;28;20042;-73
2022/01/10 04:38:42;;;;;;;45.97;21.02;;;;;;;-0.78;60.42;99927.31;5011653;28;20418;-70
2022/01/10 04:41:10;;;;;;;45.13;20.60;;;;;;;-0.73;60.24;99937.56;5012444;28;20061;-67
2022/01/10 04:43:38;;;;;;;54.90;23.92;;;;;;;-0.72;60.35;99934.94;5010362;28;20057;-73
2022/01/10 04:46:05;;;;;;;38.35;17.42;;;;;;;-0.69;59.90;99940.00;5011052;28;20117;-70
2022/01/10 04:48:32;;;;;;;43.95;21.10;;;;;;;-0.66;60.20;99942.50;5011005;28;20049;-73
2022/01/10 04:51:12;;;;;;;45.80;16.05;;;;;;;-0.63;60.00;99944.13;5023420;28;20638;-71
2022/01/10 04:53:42;;;;;;;45.53;17.55;;;;;;;-0.63;60.04;99945.00;5030626;28;20053;-71
2022/01/10 04:56:09;;;;;;;50.10;19.63;;;;;;;-0.67;60.34;99953.75;5030804;28;20379;-72
2022/01/10 04:58:36;;;;;;;47.78;20.88;;;;;;;-0.73;60.23;99953.13;5028724;28;20136;-72
2022/01/10 05:01:04;;;;;;;45.92;17.58;;;;;;;-0.75;60.55;99960.94;5030897;28;20160;-72
2022/01/10 05:03:31;;;;;;;44.92;18.13;;;;;;;-0.73;60.73;99963.50;5031654;28;20049;-73
2022/01/10 05:05:59;;;;;;;39.03;16.40;;;;;;;-0.66;60.58;99971.03;5030664;28;20178;-70
2022/01/10 05:08:26;;;;;;;45.53;18.83;;;;;;;-0.66;60.35;99968.44;5030978;28;20487;-74
2022/01/10 05:10:55;;;;;;;56.30;21.80;;;;;;;-0.73;60.51;99977.31;5046332;28;20231;-71
2022/01/10 05:13:23;;;;;;;39.45;15.40;;;;;;;-0.73;60.70;99977.31;5050647;28;20084;-71
2022/01/10 05:15:50;;;;;;;41.95;17.90;;;;;;;-0.73;60.73;99976.47;5050608;28;20104;-68
2022/01/10 05:18:18;;;;;;;47.10;19.10;;;;;;;-0.72;60.55;99975.56;5047489;28;20083;-67
2022/01/10 05:20:46;;;;;;;39.83;15.25;;;;;;;-0.67;60.58;99981.44;5049806;28;20292;-68
2022/01/10 05:23:13;;;;;;;37.00;17.48;;;;;;;-0.65;60.29;99982.25;5030988;28;20045;-71
2022/01/10 05:25:41;;;;;;;44.78;16.63;;;;;;;-0.62;60.31;99988.19;5048832;28;20097;-68
2022/01/10 05:28:11;;;;;;;35.15;17.33;;;;;;;-0.57;60.71;99984.63;5047970;28;20051;-70
2022/01/10 05:30:39;;;;;;;42.78;19.00;;;;;;;-0.52;60.29;99990.50;5048424;28;20049;-68
2022/01/10 05:33:08;;;;;;;32.17;15.82;;;;;;;-0.54;60.62;99994.88;5050248;28;20168;-68
2022/01/10 05:35:36;;;;;;;28.38;14.73;;;;;;;-0.57;60.78;100001.03;5049858;28;20041;-71
2022/01/10 05:38:03;;;;;;;34.58;14.63;;;;;;;-0.60;60.78;100003.72;5044971;28;20025;-73
2022/01/10 05:40:30;;;;;;;33.00;14.38;;;;;;;-0.60;60.37;100012.34;5029873;28;20049;-72
2022/01/10 05:42:58;;;;;;;39.38;17.05;;;;;;;-0.61;60.66;100026.22;5019226;28;20048;-69
2022/01/10 05:45:26;;;;;;;25.13;12.65;;;;;;;-0.60;60.81;100027.06;5011911;28;20128;-69
2022/01/10 05:47:53;;;;;;;31.77;16.17;;;;;;;-0.61;60.84;100021.03;5033217;28;20144;-64
2022/01/10 05:50:32;;;;;;;40.28;17.27;;;;;;;-0.62;60.61;100036.63;5032943;28;20507;-67
2022/01/10 05:52:59;;;;;;;29.65;16.95;;;;;;;-0.59;60.84;100040.00;5028568;28;20045;-69
2022/01/10 05:55:27;;;;;;;47.65;20.00;;;;;;;-0.59;60.85;100049.53;5031106;28;20076;-71
2022/01/10 05:57:54;;;;;;;35.10;14.75;;;;;;;-0.54;60.52;100051.97;5028103;28;20045;-70
2022/01/10 06:00:21;;;;;;;45.33;18.90;;;;;;;-0.51;60.58;100057.91;5028836;28;20064;-72
2022/01/10 06:02:50;;;;;;;36.13;14.73;;;;;;;-0.45;60.59;100051.69;5010257;28;20494;-70
2022/01/10 06:05:17;;;;;;;45.67;16.92;;;;;;;-0.48;60.50;100059.56;5028764;28;20059;-68
2022/01/10 06:07:44;;;;;;;43.97;15.10;;;;;;;-0.52;60.59;100056.22;5031801;28;20051;-70
2022/01/10 06:10:11;;;;;;;29.52;13.35;;;;;;;-0.49;60.91;100065.66;5030225;28;20053;-66
2022/01/10 06:12:38;;;;;;;20.67;10.38;;;;;;;-0.50;60.77;100071.75;5031940;28;20700;-70
2022/01/10 06:15:06;;;;;;;35.83;16.67;;;;;;;-0.46;60.47;100079.38;5029556;28;20053;-64
2022/01/10 06:17:33;;;;;;;35.00;15.75;;;;;;;-0.43;60.42;100089.69;5027042;28;20049;-69
2022/01/10 06:20:04;;;;;;;33.92;13.77;;;;;;;-0.42;61.00;100098.31;5028024;28;20735;-69
2022/01/10 06:22:31;;;;;;;39.00;19.00;;;;;;;-0.37;60.66;100101.63;5027461;28;20060;-71
2022/01/10 06:24:58;;;;;;;42.95;18.08;;;;;;;-0.33;60.78;100105.81;5028386;28;20049;-70
2022/01/10 06:27:27;;;;;;;45.33;21.50;;;;;;;-0.33;60.78;100117.94;5027560;28;20073;-74
2022/01/10 06:29:56;;;;;;;34.92;14.85;;;;;;;-0.35;60.61;100125.78;5032613;28;20421;-74
2022/01/10 06:32:23;;;;;;;40.55;17.48;;;;;;;-0.34;60.61;100137.00;5033064;28;20045;-66
2022/01/10 06:34:50;;;;;;;39.60;19.40;;;;;;;-0.31;60.67;100142.94;5029792;28;20060;-70
2022/01/10 06:37:19;;;;;;;39.92;19.17;;;;;;;-0.29;60.91;100148.97;5033116;28;20052;-70
2022/01/10 06:39:46;;;;;;;46.40;21.52;;;;;;;-0.22;60.63;100147.00;5036736;28;20549;-73
2022/01/10 06:42:16;;;;;;;32.85;13.57;;;;;;;-0.18;60.57;100159.03;5038212;28;20045;-69
2022/01/10 06:44:42;;;;;;;31.17;16.70;;;;;;;-0.21;60.56;100164.31;5030938;28;20053;-69
2022/01/10 06:47:10;;;;;;;30.05;11.73;;;;;;;-0.22;60.62;100163.47;5030228;28;20045;-74
2022/01/10 06:49:37;;;;;;;44.83;17.88;;;;;;;-0.18;60.87;100158.16;5029508;28;20042;-68
2022/01/10 06:52:05;;;;;;;32.70;15.75;;;;;;;-0.12;60.64;100160.59;5031353;28;20113;-71
2022/01/10 06:54:33;;;;;;;39.50;18.00;;;;;;;-0.08;60.80;100159.59;5038050;28;20107;-71
2022/01/10 06:57:00;;;;;;;31.30;14.82;;;;;;;-0.08;60.50;100168.22;5026604;28;20140;-71
2022/01/10 06:59:27;;;;;;;33.50;14.32;;;;;;;-0.03;60.65;100168.09;5029984;28;20052;-72
2022/01/10 07:01:56;;;;;;;32.20;14.25;;;;;;;0.06;60.51;100179.97;5029388;28;20056;-72
2022/01/10 07:04:23;;;;;;;30.00;13.35;;;;;;;0.12;60.47;100184.94;5009270;28;20124;-70
2022/01/10 07:06:50;;;;;;;36.42;15.50;;;;;;;0.19;60.20;100187.31;5024771;28;20063;-70
2022/01/10 07:09:17;;;;;;;37.28;15.98;;;;;;;0.21;60.25;100183.81;5027464;28;20045;-73
2022/01/10 07:11:46;;;;;;;36.65;17.45;;;;;;;0.28;60.25;100187.94;5026102;28;20046;-70
2022/01/10 07:14:14;;;;;;;40.33;18.77;;;;;;;0.32;60.30;100192.13;5025814;28;20063;-71
2022/01/10 07:16:41;;;;;;;37.22;15.88;;;;;;;0.38;60.22;100202.34;5026294;28;20136;-70
2022/01/10 07:19:08;;;;;;;43.05;18.20;;;;;;;0.42;60.55;100198.75;5026202;28;20052;-69
2022/01/10 07:21:38;;;;;;;38.20;17.48;;;;;;;0.42;60.32;100198.75;5025967;28;20500;-68
2022/01/10 07:24:05;;;;;;;43.03;22.88;;;;;;;0.42;60.60;100209.13;5025895;28;20140;-71
2022/01/10 07:26:33;;;;;;;41.03;19.00;;;;;;;0.49;60.67;100218.44;5026474;28;20080;-68
2022/01/10 07:29:02;;;;;;;36.47;15.35;;;;;;;0.53;60.61;100221.78;5025937;28;20053;-70
2022/01/10 07:31:29;;;;;;;34.42;15.88;;;;;;;0.60;60.23;100225.06;5026823;28;20056;-72
2022/01/10 07:33:57;;;;;;;35.22;15.40;;;;;;;0.67;60.22;100229.16;5025101;28;20501;-73
2022/01/10 07:36:24;;;;;;;35.10;15.60;;;;;;;0.69;60.27;100229.94;5025031;28;20052;-71
2022/01/10 07:38:51;;;;;;;40.30;15.98;;;;;;;0.75;60.11;100233.19;5025208;28;20089;-73
2022/01/10 07:41:18;;;;;;;34.92;14.52;;;;;;;0.76;60.40;100240.09;5024744;28;20067;-73
2022/01/10 07:43:45;;;;;;;36.78;16.60;;;;;;;0.77;60.47;100243.53;5025447;28;20121;-74
2022/01/10 07:46:14;;;;;;;33.20;16.20;;;;;;;0.81;60.29;100247.75;5024781;28;20050;-73
2022/01/10 07:48:44;;;;;;;34.00;14.68;;;;;;;0.83;60.33;100243.34;5024666;28;20052;-71
2022/01/10 07:51:11;;;;;;;31.98;13.65;;;;;;;0.84;60.63;100250.25;5024080;28;20108;-72
2022/01/10 07:53:39;;;;;;;33.30;16.83;;;;;;;0.84;60.39;100244.19;5024360;28;20092;-71
2022/01/10 07:56:07;;;;;;;35.00;15.27;;;;;;;0.84;60.88;100254.59;5025637;28;20052;-71
2022/01/10 07:58:38;;;;;;;29.90;14.88;;;;;;;0.86;60.85;100258.84;5022622;28;20045;-69
2022/01/10 08:01:06;;;;;;;39.95;15.20;;;;;;;0.85;60.65;100259.75;5023642;28;20132;-68
2022/01/10 08:03:35;;;;;;;42.70;15.75;;;;;;;0.88;60.92;100271.78;5023319;28;20076;-72
2022/01/10 08:06:02;;;;;;;30.30;15.63;;;;;;;0.91;60.75;100277.75;5023320;28;20045;-69
2022/01/10 08:08:30;;;;;;;41.80;18.00;;;;;;;1.01;60.90;100287.84;5024623;28;20041;-71
2022/01/10 08:10:57;;;;;;;57.95;22.65;;;;;;;1.07;60.73;100293.72;5006542;28;20060;-72
2022/01/10 08:13:24;;;;;;;35.55;15.18;;;;;;;1.07;60.85;100298.06;5024895;28;20103;-74
2022/01/10 08:15:52;;;;;;;40.60;22.30;;;;;;;1.06;60.65;100297.22;5024728;28;20101;-72
2022/01/10 08:18:20;;;;;;;43.28;21.02;;;;;;;1.13;60.80;100297.84;5024964;28;20045;-72
2022/01/10 08:20:49;;;;;;;37.30;16.30;;;;;;;1.19;60.78;100308.06;5023995;28;20557;-71
2022/01/10 08:23:16;;;;;;;31.75;13.50;;;;;;;1.23;60.62;100307.06;5023367;28;20042;-73
2022/01/10 08:25:44;;;;;;;36.28;13.43;;;;;;;1.26;60.31;100309.56;5024891;28;20083;-69
2022/01/10 08:28:11;;;;;;;31.33;15.38;;;;;;;1.26;60.35;100303.50;5027124;28;20297;-67
2022/01/10 08:30:38;;;;;;;45.03;21.60;;;;;;;1.27;60.69;100319.06;5031628;28;20479;-73
2022/01/10 08:33:05;;;;;;;36.63;17.15;;;;;;;1.31;60.52;100319.81;5023092;28;20049;-72
2022/01/10 08:35:33;;;;;;;34.42;15.15;;;;;;;1.34;60.64;100325.78;5023147;28;20060;-72
2022/01/10 08:38:01;;;;;;;38.65;17.10;;;;;;;1.38;60.51;100321.31;4988495;28;20102;-69
2022/01/10 08:40:29;;;;;;;41.05;19.98;;;;;;;1.38;60.77;100336.94;5023629;28;20050;-69
2022/01/10 08:42:56;;;;;;;24.80;11.80;;;;;;;1.42;60.52;100348.94;5023091;28;20131;-75
2022/01/10 08:45:23;;;;;;;35.63;14.95;;;;;;;1.39;60.74;100346.44;5022558;28;20727;-73
2022/01/10 08:47:50;;;;;;;27.35;12.52;;;;;;;1.44;60.61;100354.09;5024782;28;20052;-72
2022/01/10 08:50:17;;;;;;;27.50;14.77;;;;;;;1.57;60.38;100352.78;5022122;28;20422;-72
2022/01/10 08:52:44;;;;;;;38.03;14.88;;;;;;;1.67;60.21;100354.16;4971731;28;20129;-74
2022/01/10 08:55:12;;;;;;;32.22;15.82;;;;;;;1.68;60.24;100357.63;5023480;28;20042;-73
2022/01/10 08:57:41;;;;;;;35.38;17.48;;;;;;;1.68;60.45;100360.25;5021679;28;20046;-74
2022/01/10 09:00:09;;;;;;;37.03;15.27;;;;;;;1.70;60.29;100364.47;5023703;28;20042;-70
2022/01/10 09:02:36;;;;;;;37.35;14.07;;;;;;;1.76;60.13;100359.97;5024251;28;20083;-71
2022/01/10 09:05:04;;;;;;;34.20;15.07;;;;;;;1.77;60.00;100361.69;5025473;28;20558;-73
2022/01/10 09:07:33;;;;;;;32.22;17.13;;;;;;;1.75;60.19;100366.06;4989315;28;20052;-74
2022/01/10 09:10:01;;;;;;;28.95;13.65;;;;;;;1.79;60.33;100368.53;5026108;28;20165;-73
2022/01/10 09:12:31;;;;;;;29.02;13.93;;;;;;;1.84;60.01;100378.81;5025409;28;20134;-72
2022/01/10 09:14:58;;;;;;;27.55;13.85;;;;;;;1.89;60.22;100379.47;5023258;28;20061;-67
2022/01/10 09:17:25;;;;;;;28.00;12.60;;;;;;;1.90;60.14;100375.97;5026029;28;20129;-74
2022/01/10 09:19:52;;;;;;;28.67;14.95;;;;;;;1.95;59.95;100383.63;5026939;28;20053;-74
2022/01/10 09:22:20;;;;;;;23.33;13.80;;;;;;;1.95;60.06;100389.69;5028056;28;20129;-71
2022/01/10 09:24:48;;;;;;;26.20;13.68;;;;;;;2.02;59.92;100392.94;5027810;28;20045;-73
2022/01/10 09:27:16;;;;;;;20.83;12.02;;;;;;;2.02;60.07;100396.38;5026472;28;20053;-71
2022/01/10 09:29:46;;;;;;;25.05;12.50;;;;;;;2.10;59.92;100407.38;5028515;28;20045;-72
2022/01/10 09:32:13;;;;;;;31.73;13.50;;;;;;;2.12;59.67;100409.09;5028739;28;20052;-74
2022/01/10 09:34:40;;;;;;;30.30;15.43;;;;;;;2.15;59.84;100416.81;5029521;28;20059;-76
2022/01/10 09:37:08;;;;;;;29.90;15.65;;;;;;;2.17;59.79;100410.63;5031903;28;20047;-74
2022/01/10 09:39:35;;;;;;;26.75;13.70;;;;;;;2.21;59.65;100413.97;5034302;28;20388;-74
2022/01/10 09:42:02;;;;;;;29.75;15.05;;;;;;;2.23;59.72;100419.97;5030962;28;20109;-71
2022/01/10 09:44:29;;;;;;;31.20;14.75;;;;;;;2.22;59.69;100421.75;5038334;28;20045;-72
2022/01/10 09:46:58;;;;;;;35.80;16.42;;;;;;;2.17;59.82;100428.03;5005310;28;20051;-69
2022/01/10 09:49:26;;;;;;;33.85;15.55;;;;;;;2.18;59.93;100429.72;5032161;28;20140;-68
2022/01/10 09:51:53;;;;;;;29.27;16.55;;;;;;;2.19;59.65;100421.84;5032356;28;20136;-72
2022/01/10 09:54:20;;;;;;;27.75;14.73;;;;;;;2.25;59.68;100421.66;5034586;28;20045;-72
2022/01/10 09:56:49;;;;;;;32.28;15.80;;;;;;;2.29;59.65;100425.00;5031476;28;20631;-73
2022/01/10 09:59:16;;;;;;;38.55;18.92;;;;;;;2.38;59.48;100421.22;5034851;28;20049;-71
2022/01/10 10:01:44;;;;;;;36.60;18.98;;;;;;;2.41;59.44;100431.50;5020291;28;20589;-74
2022/01/10 10:04:13;;;;;;;51.45;25.30;;;;;;;2.46;59.46;100434.81;5032820;28;20045;-72
2022/01/10 10:06:40;;;;;;;38.65;21.38;;;;;;;2.50;59.26;100431.16;5015565;28;20136;-72
2022/01/10 10:09:09;;;;;;;45.30;20.10;;;;;;;2.49;59.30;100437.31;5028971;28;20052;-68
2022/01/10 10:11:50;;;;;;;48.30;23.05;;;;;;;2.54;59.36;100437.13;5028964;28;20057;-72
2022/01/10 10:14:20;;;;;;;43.42;20.35;;;;;;;2.54;59.30;100445.81;5032008;28;20124;-73
2022/01/10 10:16:50;;;;;;;45.30;20.98;;;;;;;2.55;59.45;100449.28;5026555;28;20635;-74
2022/01/10 10:19:20;;;;;;;49.97;20.52;;;;;;;2.56;59.31;100450.97;5026058;28;20050;-71
2022/01/10 10:21:47;;;;;;;53.67;24.60;;;;;;;2.56;59.49;100453.59;5027096;28;20132;-70
2022/01/10 10:24:15;;;;;;;53.42;26.00;;;;;;;2.61;59.25;100449.91;5025425;28;20133;-74
2022/01/10 10:26:42;;;;;;;47.47;23.83;;;;;;;2.67;59.11;100461.88;5026577;28;20143;-71
2022/01/10 10:29:13;;;;;;;44.95;22.42;;;;;;;2.66;59.03;100463.59;5023454;28;20148;-71
2022/01/10 10:31:45;;;;;;;47.53;23.55;;;;;;;2.74;59.21;100462.47;5026214;28;20049;-73
2022/01/10 10:34:20;;;;;;;50.72;22.95;;;;;;;2.74;59.13;100465.94;5026141;28;20099;-72
2022/01/10 10:36:58;;;;;;;50.58;23.70;;;;;;;2.71;59.29;100470.44;5025661;28;20143;-72
2022/01/10 10:39:29;;;;;;;52.35;23.73;;;;;;;2.75;59.18;100477.22;5024424;28;20084;-68
2022/01/10 10:41:59;;;;;;;57.10;26.63;;;;;;;2.80;58.65;100490.97;5026130;28;20053;-74
2022/01/10 10:44:27;;;;;;;56.08;24.45;;;;;;;2.78;59.06;100488.41;5026503;28;20060;-71
2022/01/10 10:46:53;;;;;;;52.67;24.42;;;;;;;2.76;58.85;100490.22;5026173;28;20049;-74
2022/01/10 10:49:30;;;;;;;54.72;24.00;;;;;;;2.73;58.96;100492.94;5026937;28;20153;-72
2022/01/10 10:51:58;;;;;;;52.10;23.15;;;;;;;2.72;59.01;100493.84;5006366;28;20049;-68
2022/01/10 10:54:25;;;;;;;55.28;25.48;;;;;;;2.80;58.92;100504.00;5006978;28;20237;-73
2022/01/10 10:56:52;;;;;;;53.03;24.77;;;;;;;2.80;58.89;100511.81;5006965;28;20049;-72
2022/01/10 10:59:19;;;;;;;49.58;25.15;;;;;;;2.75;59.03;100517.19;5002640;28;20382;-73
2022/01/10 11:01:46;;;;;;;61.65;28.80;;;;;;;2.73;58.75;100508.56;5004529;28;20073;-71
2022/01/10 11:04:13;;;;;;;56.60;26.27;;;;;;;2.65;59.09;100519.28;5007353;28;20076;-71
2022/01/10 11:06:42;;;;;;;58.05;25.23;;;;;;;2.62;59.09;100521.16;5003714;28;20061;-70
2022/01/10 11:09:12;;;;;;;48.08;25.75;;;;;;;2.58;59.12;100530.00;5004293;28;20052;-71
2022/01/10 11:11:40;;;;;;;60.60;26.67;;;;;;;2.58;59.12;100535.22;5009347;28;20045;-73
2022/01/10 11:14:09;;;;;;;50.38;24.35;;;;;;;2.58;59.17;100545.66;5003867;28;20050;-69
2022/01/10 11:16:39;;;;;;;63.03;30.30;;;;;;;2.60;59.32;100539.47;5011356;28;20049;-72
2022/01/10 11:19:13;;;;;;;59.65;24.98;;;;;;;2.64;59.05;100537.59;5005152;28;20104;-71
2022/01/10 11:21:46;;;;;;;53.38;27.35;;;;;;;2.60;59.07;100541.22;5003100;28;20096;-71
2022/01/10 11:24:33;;;;;;;59.78;27.52;;;;;;;2.54;59.32;100549.25;4991628;28;20508;-72